Time;durP1;ratioP1;P1;durP2;ratioP2;P2;SDS_P1;SDS_P2;PMS_P1;PMS_P2;Temp;Humidity;BMP_temperature;BMP_pressure;BME280_temperature;BME280_humidity;BME280_pressure;Samples;Min_cycle;Max_cycle;Signal;HPM_P1;HPM_P2
2022/04/08 00:02:09;;;;;;;4.97;2.77;;;9.30;99.90;;;9.88;61.32;96374.47;5202128;28;20210;-58
2022/04/08 00:04:44;;;;;;;2.80;2.30;;;9.20;99.90;;;9.91;60.95;96395.84;5204791;28;20226;-53
2022/04/08 00:07:17;;;;;;;4.97;2.47;;;9.20;99.90;;;10.00;59.70;96395.31;5202288;28;20200;-51
2022/04/08 00:09:51;;;;;;;6.43;2.60;;;9.20;99.90;;;10.06;60.22;96404.88;5204552;28;20734;-52
2022/04/08 00:12:24;;;;;;;4.57;2.60;;;9.20;99.90;;;9.86;60.06;96405.03;5200728;28;20225;-54
2022/04/08 00:14:58;;;;;;;3.60;2.45;;;9.20;99.90;;;9.83;60.20;96399.81;5198257;28;20246;-54
2022/04/08 00:17:32;;;;;;;4.23;2.50;;;9.10;99.90;;;9.75;59.18;96413.97;5204178;28;20666;-52
2022/04/08 00:20:06;;;;;;;3.90;2.23;;;9.10;99.90;;;9.90;58.73;96409.44;5204971;28;20700;-57
2022/04/08 00:22:41;;;;;;;3.87;2.20;;;9.20;99.90;;;9.89;58.85;96405.13;5202749;28;20197;-56
2022/04/08 00:25:15;;;;;;;5.10;2.40;;;9.20;99.90;;;9.85;60.82;96410.09;5202577;28;20221;-51
2022/04/08 00:27:48;;;;;;;5.03;2.70;;;9.10;99.90;;;9.89;60.45;96417.88;5196948;28;20237;-52
2022/04/08 00:30:21;;;;;;;4.15;2.30;;;9.10;99.90;;;9.92;59.44;96412.03;5203741;28;20230;-57
2022/04/08 00:32:57;;;;;;;6.83;2.70;;;9.10;99.90;;;9.91;59.22;96405.19;5201801;28;20305;-52
2022/04/08 00:35:30;;;;;;;5.97;2.57;;;9.10;99.90;;;9.88;59.77;96390.66;5202730;28;20701;-55
2022/04/08 00:38:03;;;;;;;5.17;2.30;;;9.10;99.90;;;9.98;57.83;96406.28;5203773;28;20307;-56
2022/04/08 00:40:38;;;;;;;4.00;2.40;;;9.20;99.90;;;9.89;59.01;96402.56;5200601;28;20312;-53
2022/04/08 00:43:14;;;;;;;4.37;2.40;;;9.20;99.90;;;9.90;58.39;96400.88;5202584;28;20228;-52
2022/04/08 00:45:47;;;;;;;3.77;2.40;;;9.10;99.90;;;9.92;59.31;96407.78;5203404;28;20271;-52
2022/04/08 00:48:20;;;;;;;6.27;2.43;;;9.10;99.90;;;9.79;61.00;96412.41;5204195;28;20244;-55
2022/04/08 00:50:54;;;;;;;4.73;2.33;;;9.10;99.90;;;9.86;59.33;96406.72;5203736;28;20192;-52
2022/04/08 00:53:28;;;;;;;4.00;2.80;;;9.10;99.90;;;9.76;59.16;96415.72;5199451;28;20288;-54
2022/04/08 00:56:04;;;;;;;4.40;2.60;;;9.10;99.90;;;9.77;59.75;96432.75;5204143;28;20264;-51
2022/04/08 00:58:37;;;;;;;5.30;2.30;;;9.00;99.90;;;9.81;58.31;96431.19;5203144;28;20259;-52
2022/04/08 01:01:11;;;;;;;6.20;2.80;;;9.00;99.90;;;9.72;58.71;96436.81;5202395;28;20257;-51
2022/04/08 01:03:44;;;;;;;5.47;2.73;;;9.00;99.90;;;9.67;59.25;96438.31;5198836;28;20213;-56
2022/04/08 01:06:17;;;;;;;4.07;2.40;;;9.00;99.90;;;9.76;59.15;96442.91;5202865;28;20737;-54
2022/04/08 01:08:52;;;;;;;5.23;2.80;;;9.00;99.90;;;9.88;58.66;96449.34;5199505;28;20229;-54
2022/04/08 01:11:26;;;;;;;4.17;2.50;;;9.00;99.90;;;9.86;58.48;96452.66;5203207;28;20288;-55
2022/04/08 01:14:09;;;;;;;5.97;2.37;;;9.10;99.90;;;9.83;58.71;96453.41;5202030;28;20235;-52
2022/04/08 01:16:42;;;;;;;3.40;2.30;;;9.10;99.90;;;9.79;58.16;96446.47;5201703;28;20729;-52
2022/04/08 01:19:15;;;;;;;4.07;2.73;;;9.10;99.90;;;9.75;58.89;96453.94;5203151;28;20209;-52
2022/04/08 01:21:48;;;;;;;5.47;2.47;;;9.10;99.90;;;9.79;59.17;96456.66;5200578;28;20249;-52
2022/04/08 01:24:23;;;;;;;5.93;2.63;;;9.10;99.90;;;9.83;58.21;96455.94;5203004;28;20226;-51
2022/04/08 01:26:57;;;;;;;5.20;2.57;;;9.10;99.90;;;9.72;58.63;96447.03;5203227;28;20284;-52
2022/04/08 01:29:30;;;;;;;5.70;2.23;;;9.00;99.90;;;9.78;58.72;96449.81;5202898;28;20482;-52
2022/04/08 01:32:04;;;;;;;4.33;2.87;;;9.00;99.90;;;9.88;59.37;96461.22;5203422;28;20620;-55
2022/04/08 01:34:37;;;;;;;5.87;2.80;;;9.00;99.90;;;9.80;58.68;96454.97;5200541;28;20287;-52
2022/04/08 01:37:11;;;;;;;4.47;2.50;;;9.00;99.90;;;9.83;58.55;96440.63;5198505;28;20279;-54
2022/04/08 01:39:44;;;;;;;3.67;2.70;;;9.10;99.90;;;9.77;58.94;96442.97;5201704;28;20230;-55
2022/04/08 01:42:22;;;;;;;4.33;2.60;;;9.00;99.90;;;9.73;59.44;96456.44;5201685;28;20658;-52
2022/04/08 01:44:55;;;;;;;6.30;2.47;;;9.00;99.90;;;9.58;59.75;96454.16;5201178;28;20264;-60
2022/04/08 01:47:28;;;;;;;4.67;2.50;;;8.90;99.90;;;9.58;59.80;96460.94;5194891;28;20657;-58
2022/04/08 01:50:02;;;;;;;3.87;2.73;;;8.90;99.90;;;9.50;60.53;96470.88;5198122;28;20240;-52
2022/04/08 01:52:35;;;;;;;3.83;2.60;;;8.80;99.90;;;9.47;60.62;96486.03;5202245;28;20251;-56
2022/04/08 01:55:09;;;;;;;3.00;2.40;;;8.80;99.90;;;9.59;60.43;96485.66;5207240;28;20302;-51
2022/04/08 01:57:43;;;;;;;5.73;2.77;;;8.70;99.90;;;9.59;59.85;96478.88;5206835;28;20339;-52
2022/04/08 02:00:17;;;;;;;3.53;2.70;;;8.80;99.90;;;9.69;59.93;96480.06;5208156;28;20689;-52
2022/04/08 02:02:50;;;;;;;5.30;2.90;;;8.90;99.90;;;9.65;59.17;96488.44;5205580;28;20905;-52
2022/04/08 02:05:23;;;;;;;3.90;2.53;;;8.90;99.90;;;9.79;58.54;96477.06;5202988;28;20590;-60
2022/04/08 02:07:56;;;;;;;4.30;2.83;;;9.10;99.90;;;9.87;57.04;96493.53;5207378;28;20226;-59
2022/04/08 02:10:29;;;;;;;3.13;2.83;;;9.10;99.60;;;9.76;58.36;96489.72;5206748;28;20194;-60
2022/04/08 02:13:03;;;;;;;2.90;2.67;;;9.00;99.90;;;9.60;59.34;96501.00;5205311;28;20285;-58
2022/04/08 02:15:37;;;;;;;2.80;2.60;;;8.90;99.90;;;9.55;59.56;96496.53;5205703;28;20217;-60
2022/04/08 02:18:10;;;;;;;4.30;2.70;;;8.90;99.90;;;9.70;58.92;96497.16;5203211;28;20701;-59
2022/04/08 02:20:44;;;;;;;4.63;2.83;;;8.90;99.90;;;9.84;58.48;96503.66;5205465;28;20316;-60
2022/04/08 02:23:17;;;;;;;4.33;2.60;;;9.00;99.90;;;9.84;58.49;96496.00;5204985;28;20226;-59
2022/04/08 02:25:50;;;;;;;4.17;2.47;;;9.10;99.90;;;9.58;59.13;96504.31;5207614;28;20312;-59
2022/04/08 02:28:24;;;;;;;3.93;2.73;;;9.00;99.90;;;9.68;58.67;96506.41;5205193;28;20297;-57
2022/04/08 02:30:57;;;;;;;4.20;2.73;;;8.90;99.90;;;9.75;59.19;96499.84;5200437;28;20281;-59
2022/04/08 02:33:30;;;;;;;5.30;2.50;;;8.90;99.90;;;9.60;58.87;96500.16;5204960;28;20216;-60
2022/04/08 02:36:04;;;;;;;7.43;2.50;;;8.80;99.90;;;9.56;59.36;96506.81;5206397;28;20308;-60
2022/04/08 02:38:37;;;;;;;3.43;2.40;;;8.80;99.90;;;9.61;59.51;96504.41;5204348;28;20225;-57
2022/04/08 02:41:11;;;;;;;4.90;2.23;;;8.80;99.90;;;9.56;60.28;96509.38;5206623;28;20620;-60
2022/04/08 02:43:45;;;;;;;4.20;2.37;;;8.80;99.90;;;9.61;59.43;96512.94;5204767;28;20296;-58
2022/04/08 02:46:18;;;;;;;5.07;2.30;;;8.90;99.90;;;9.58;60.08;96504.31;5204266;28;20256;-59
2022/04/08 02:48:51;;;;;;;4.70;2.60;;;8.80;99.90;;;9.42;60.81;96505.41;5206040;28;20662;-59
2022/04/08 02:51:24;;;;;;;4.60;2.50;;;8.70;99.90;;;9.50;60.15;96509.13;5207353;28;20610;-60
2022/04/08 02:53:57;;;;;;;5.33;2.50;;;8.70;99.90;;;9.50;61.46;96513.34;5199446;28;20229;-60
2022/04/08 02:56:30;;;;;;;6.27;2.67;;;8.70;99.90;;;9.46;62.13;96515.75;5205849;28;20225;-59
2022/04/08 02:59:05;;;;;;;4.10;2.30;;;8.70;99.90;;;9.42;61.90;96515.59;5206460;28;20190;-60
2022/04/08 03:01:39;;;;;;;4.97;2.70;;;8.70;99.90;;;9.34;62.22;96515.28;5202539;28;20760;-60
2022/04/08 03:04:12;;;;;;;4.47;2.53;;;8.60;99.90;;;9.36;61.92;96521.34;5203533;28;20205;-56
2022/04/08 03:06:45;;;;;;;4.53;2.20;;;8.60;99.90;;;9.28;62.65;96519.28;5208036;28;20639;-56
2022/04/08 03:09:18;;;;;;;5.40;2.60;;;8.60;99.90;;;9.39;62.83;96531.66;5206344;28;20234;-56
2022/04/08 03:11:51;;;;;;;3.57;2.27;;;8.60;99.90;;;9.41;61.82;96524.94;5206366;28;20225;-54
2022/04/08 03:14:26;;;;;;;8.03;2.73;;;8.60;99.90;;;9.32;61.69;96532.19;5205594;28;20221;-55
2022/04/08 03:16:59;;;;;;;3.87;2.37;;;8.60;99.90;;;9.40;61.55;96528.28;5193733;28;20201;-56
2022/04/08 03:19:32;;;;;;;3.53;2.67;;;8.60;99.90;;;9.41;61.54;96530.03;5207533;28;20219;-55
2022/04/08 03:22:07;;;;;;;2.80;2.50;;;8.60;99.90;;;9.50;60.38;96538.84;5204442;28;20633;-55
2022/04/08 03:24:40;;;;;;;4.07;2.60;;;8.60;99.90;;;9.47;59.46;96535.38;5207593;28;20304;-55
2022/04/08 03:27:13;;;;;;;4.97;2.47;;;8.60;99.90;;;9.38;60.54;96541.78;5198503;28;20641;-54
2022/04/08 03:29:48;;;;;;;5.07;2.93;;;8.60;99.90;;;9.32;61.32;96529.66;5207256;28;20238;-56
2022/04/08 03:32:21;;;;;;;3.90;2.63;;;8.50;99.90;;;9.19;61.19;96522.34;5207330;28;20217;-57
2022/04/08 03:34:58;;;;;;;4.13;2.57;;;8.50;99.90;;;9.20;60.01;96526.63;5204306;28;20218;-57
2022/04/08 03:37:31;;;;;;;3.90;2.40;;;8.50;99.90;;;9.08;60.69;96546.50;5206777;28;20635;-57
2022/04/08 03:40:06;;;;;;;2.40;2.20;;;8.40;99.90;;;8.98;61.09;96542.69;5208146;28;20245;-58
2022/04/08 03:42:39;;;;;;;5.70;2.60;;;8.30;99.90;;;9.17;60.94;96542.66;5206504;28;20320;-59
2022/04/08 03:45:14;;;;;;;4.83;2.77;;;8.40;99.90;;;9.12;60.32;96536.50;5204688;28;20321;-56
2022/04/08 03:47:48;;;;;;;3.63;2.50;;;8.40;99.90;;;9.17;59.35;96539.25;5206397;28;20225;-58
2022/04/08 03:50:21;;;;;;;4.93;2.50;;;8.40;99.90;;;9.15;60.29;96546.81;5206983;28;20303;-57
2022/04/08 03:52:55;;;;;;;6.00;2.63;;;8.40;99.90;;;9.06;60.74;96550.66;5206130;28;20673;-58
2022/04/08 03:55:28;;;;;;;4.90;2.50;;;8.30;99.90;;;9.12;60.63;96546.69;5207020;28;20256;-59
2022/04/08 03:58:01;;;;;;;4.93;2.60;;;8.30;99.90;;;9.04;60.94;96537.84;5203818;28;20627;-57
2022/04/08 04:00:35;;;;;;;3.97;2.80;;;8.30;99.90;;;9.03;61.53;96543.75;5206528;28;20555;-60
2022/04/08 04:03:09;;;;;;;3.30;3.00;;;8.20;99.90;;;9.03;61.55;96544.63;5205151;28;20326;-56
2022/04/08 04:05:47;;;;;;;6.03;3.00;;;8.20;99.90;;;9.01;61.87;96551.38;5208514;28;20308;-58
2022/04/08 04:08:20;;;;;;;4.57;2.80;;;8.20;99.90;;;8.92;62.96;96543.31;5206408;28;20229;-60
2022/04/08 04:10:53;;;;;;;6.30;2.90;;;8.20;99.90;;;8.82;62.83;96535.22;5205473;28;20285;-51
2022/04/08 04:13:26;;;;;;;4.03;2.47;;;8.10;99.90;;;8.91;62.41;96546.66;5205306;28;20248;-52
2022/04/08 04:16:00;;;;;;;6.53;2.60;;;8.20;99.90;;;8.83;63.16;96553.13;5206212;28;20264;-51
2022/04/08 04:18:33;;;;;;;4.57;2.70;;;8.10;99.90;;;8.94;62.09;96562.09;5201848;28;20290;-56
2022/04/08 04:21:08;;;;;;;6.33;2.63;;;8.20;99.90;;;9.00;62.39;96569.97;5206208;28;20612;-54
2022/04/08 04:23:41;;;;;;;3.07;2.77;;;8.20;99.90;;;8.85;61.93;96571.91;5205309;28;20253;-55
2022/04/08 04:26:14;;;;;;;3.30;2.60;;;8.20;99.90;;;8.91;60.34;96572.16;5209483;28;20612;-52
2022/04/08 04:28:47;;;;;;;7.17;2.87;;;8.20;99.90;;;8.88;61.15;96577.13;5207195;28;20236;-53
2022/04/08 04:31:22;;;;;;;5.07;3.00;;;8.20;99.90;;;8.73;61.13;96577.34;5199493;28;20230;-51
2022/04/08 04:33:55;;;;;;;5.27;2.90;;;8.10;99.90;;;8.77;60.79;96578.34;5203585;28;20205;-53
2022/04/08 04:36:28;;;;;;;4.07;2.60;;;8.10;99.90;;;8.67;61.19;96582.19;5205595;28;20234;-52
2022/04/08 04:39:01;;;;;;;3.83;2.60;;;8.10;99.90;;;8.91;60.03;96578.94;5205426;28;20760;-51
2022/04/08 04:41:34;;;;;;;5.33;2.63;;;8.10;99.90;;;8.81;60.24;96575.09;5204232;28;20252;-51
2022/04/08 04:44:07;;;;;;;5.73;3.00;;;8.10;99.90;;;9.01;59.48;96586.13;5204560;28;20285;-53
2022/04/08 04:46:42;;;;;;;5.20;2.50;;;8.20;99.90;;;8.90;59.74;96585.72;5204314;28;20206;-51
2022/04/08 04:49:16;;;;;;;5.13;2.83;;;8.20;99.90;;;8.91;60.26;96579.78;5205107;28;20635;-56
2022/04/08 04:51:49;;;;;;;3.73;2.33;;;8.20;99.90;;;8.95;59.73;96578.25;5203439;28;20195;-57
2022/04/08 04:54:22;;;;;;;6.47;2.73;;;8.20;99.90;;;9.03;60.30;96582.00;5203778;28;20690;-53
2022/04/08 04:56:55;;;;;;;4.23;2.80;;;8.20;99.90;;;8.97;60.44;96585.16;5200930;28;20256;-50
2022/04/08 04:59:28;;;;;;;4.70;3.10;;;8.20;99.90;;;8.98;59.08;96583.47;5203586;28;20276;-53
2022/04/08 05:02:03;;;;;;;4.60;2.60;;;8.20;99.90;;;8.82;59.29;96576.88;5204632;28;20210;-54
2022/04/08 05:04:36;;;;;;;5.00;3.00;;;8.20;99.90;;;8.98;58.64;96584.34;5209663;28;20220;-58
2022/04/08 05:07:09;;;;;;;6.70;2.83;;;8.20;99.90;;;8.98;59.17;96589.44;5210046;28;20236;-54
2022/04/08 05:09:43;;;;;;;5.73;2.33;;;8.30;99.90;;;8.92;58.80;96594.25;5203435;28;20827;-54
2022/04/08 05:12:16;;;;;;;5.87;2.70;;;8.20;99.90;;;8.96;59.49;96585.09;5205400;28;20305;-55
2022/04/08 05:14:49;;;;;;;4.07;2.90;;;8.20;99.90;;;8.91;59.93;96582.34;5203792;28;20857;-55
2022/04/08 05:17:23;;;;;;;4.47;2.80;;;8.20;99.90;;;8.90;59.81;96587.34;5211093;28;20233;-59
2022/04/08 05:19:56;;;;;;;4.47;2.77;;;8.20;99.90;;;8.93;59.52;96596.03;5204056;28;20221;-59
2022/04/08 05:22:29;;;;;;;4.07;2.50;;;8.20;99.90;;;8.90;60.18;96590.81;5196278;28;20353;-57
2022/04/08 05:25:02;;;;;;;5.60;2.83;;;8.10;99.90;;;9.00;58.98;96592.91;5210822;28;20651;-52
2022/04/08 05:27:41;;;;;;;4.57;2.67;;;8.20;99.90;;;8.94;58.71;96592.66;5206326;28;20193;-51
2022/04/08 05:30:17;;;;;;;4.63;2.90;;;8.20;99.90;;;8.83;59.76;96600.66;5203516;28;20234;-56
2022/04/08 05:32:52;;;;;;;4.10;2.70;;;8.20;99.90;;;8.90;60.11;96598.44;5203334;28;20255;-58
2022/04/08 05:35:25;;;;;;;4.77;3.00;;;8.10;99.90;;;8.91;60.02;96597.63;5203643;28;20655;-58
2022/04/08 05:37:58;;;;;;;5.67;3.20;;;8.20;99.90;;;8.93;59.83;96596.03;5201846;28;20678;-59
2022/04/08 05:40:31;;;;;;;3.37;2.80;;;8.20;99.90;;;8.93;60.08;96596.03;5208240;28;20369;-58
2022/04/08 05:43:04;;;;;;;5.50;2.90;;;8.20;99.90;;;8.95;60.09;96593.53;5207149;28;20658;-56
2022/04/08 05:45:37;;;;;;;6.50;3.10;;;8.20;99.90;;;8.90;60.48;96605.19;5198392;28;20310;-55
2022/04/08 05:48:12;;;;;;;5.43;3.00;;;8.20;99.90;;;8.98;60.55;96606.41;5204082;28;20204;-52
2022/04/08 05:50:45;;;;;;;4.00;3.13;;;8.20;99.90;;;9.01;61.21;96599.78;5194621;28;20197;-52
2022/04/08 05:53:18;;;;;;;4.07;2.63;;;8.20;99.90;;;9.06;61.08;96611.84;5207049;28;20237;-53
2022/04/08 05:56:06;;;;;;;5.33;2.67;;;8.20;99.90;;;8.98;61.95;96608.94;5204825;28;20348;-55
2022/04/08 05:58:39;;;;;;;6.63;3.27;;;8.30;99.90;;;9.05;61.19;96616.06;5205149;28;20285;-52
2022/04/08 06:01:13;;;;;;;5.03;2.90;;;8.30;99.90;;;9.20;60.42;96620.94;5207889;28;20206;-54
2022/04/08 06:03:47;;;;;;;6.13;3.00;;;8.40;99.90;;;9.20;60.82;96621.81;5201148;28;20253;-56
2022/04/08 06:06:20;;;;;;;5.03;2.90;;;8.40;99.90;;;9.21;60.78;96623.56;5207752;28;20217;-53
2022/04/08 06:08:53;;;;;;;5.77;3.20;;;8.40;99.90;;;9.20;60.47;96626.03;5207854;28;20280;-53
2022/04/08 06:11:26;;;;;;;8.40;3.00;;;8.40;99.90;;;9.22;60.37;96626.97;5201553;28;20238;-61
2022/04/08 06:13:59;;;;;;;5.60;2.70;;;8.40;99.90;;;9.21;60.82;96621.00;5198529;28;20283;-53
2022/04/08 06:16:32;;;;;;;6.43;2.90;;;8.40;99.90;;;9.23;60.95;96621.06;5206123;28;20288;-52
2022/04/08 06:19:06;;;;;;;6.13;3.30;;;8.50;99.90;;;9.29;61.28;96621.31;5207830;28;20198;-55
2022/04/08 06:21:40;;;;;;;6.20;3.00;;;8.40;99.90;;;9.32;61.93;96623.13;5203451;28;20731;-55
2022/04/08 06:24:13;;;;;;;3.93;3.00;;;8.40;99.90;;;9.27;62.45;96610.19;5199746;28;20253;-54
2022/04/08 06:26:46;;;;;;;5.67;2.93;;;8.50;99.90;;;9.22;63.83;96609.13;5202409;28;20614;-55
2022/04/08 06:29:19;;;;;;;4.57;3.00;;;8.50;99.90;;;9.20;65.02;96610.75;5202972;28;20640;-55
2022/04/08 06:31:52;;;;;;;5.70;3.17;;;8.50;99.90;;;9.16;65.53;96608.88;5196492;28;20225;-59
2022/04/08 06:34:27;;;;;;;5.47;3.00;;;8.40;99.90;;;9.17;65.40;96606.38;5197996;28;20252;-51
2022/04/08 06:37:00;;;;;;;6.00;3.00;;;8.40;99.90;;;9.16;67.11;96598.69;5200767;28;20201;-52
2022/04/08 06:39:33;;;;;;;6.13;3.03;;;8.40;99.90;;;9.25;66.88;96596.50;5204314;28;20233;-52
2022/04/08 06:42:07;;;;;;;7.27;3.20;;;8.40;99.90;;;9.22;67.21;96593.84;5207070;28;20202;-51
2022/04/08 06:44:40;;;;;;;4.13;2.97;;;8.50;99.90;;;9.21;67.64;96592.97;5205137;28;20313;-54
2022/04/08 06:47:13;;;;;;;5.87;2.90;;;8.40;99.90;;;9.27;67.14;96582.16;5201330;28;20237;-55
2022/04/08 06:49:47;;;;;;;5.77;3.30;;;8.50;99.90;;;9.21;67.13;96584.44;5205823;28;20202;-51
2022/04/08 06:52:20;;;;;;;5.17;2.60;;;8.50;99.90;;;9.28;67.89;96576.25;5208367;28;20228;-51
2022/04/08 06:54:53;;;;;;;6.07;2.90;;;8.60;99.90;;;9.31;66.89;96581.47;5203593;28;20309;-56
2022/04/08 06:57:26;;;;;;;3.67;2.70;;;8.50;99.90;;;9.44;65.88;96582.81;5204130;28;20293;-51
2022/04/08 06:59:59;;;;;;;4.20;3.30;;;8.60;99.90;;;9.45;67.06;96576.94;5207685;28;20288;-52
2022/04/08 07:02:32;;;;;;;4.90;2.83;;;8.60;99.90;;;9.49;67.41;96581.34;5202120;28;20252;-51
2022/04/08 07:05:08;;;;;;;4.73;2.40;;;8.60;99.90;;;9.50;66.91;96579.66;5203920;28;20222;-51
2022/04/08 07:07:45;;;;;;;5.17;3.10;;;8.70;99.90;;;9.47;67.84;96576.19;5207440;28;20197;-57
2022/04/08 07:10:18;;;;;;;3.93;2.80;;;8.60;99.90;;;9.58;67.41;96580.81;5207070;28;20229;-51
2022/04/08 07:12:51;;;;;;;4.70;2.73;;;8.70;99.90;;;9.49;67.87;96578.78;5203762;28;20624;-51
2022/04/08 07:15:24;;;;;;;6.63;2.40;;;8.60;99.90;;;9.51;69.48;96577.16;5203064;28;20306;-51
2022/04/08 07:17:57;;;;;;;4.50;2.43;;;8.60;99.90;;;9.45;70.56;96572.69;5204145;28;20285;-52
2022/04/08 07:20:32;;;;;;;4.23;2.50;;;8.50;99.90;;;9.44;72.74;96567.50;5208258;28;20660;-55
2022/04/08 07:23:05;;;;;;;4.90;3.10;;;8.40;99.90;;;9.20;73.39;96569.94;5194318;28;20639;-56
2022/04/08 07:25:39;;;;;;;5.13;4.70;;;8.40;99.90;;;9.08;74.97;96557.56;5204085;28;20732;-52
2022/04/08 07:28:12;;;;;;;6.27;5.10;;;8.20;99.90;;;8.89;75.25;96561.00;5211930;28;20205;-54
2022/04/08 07:30:48;;;;;;;6.33;5.00;;;8.10;99.90;;;8.80;77.15;96553.84;5207713;28;20252;-52
2022/04/08 07:33:21;;;;;;;6.97;4.90;;;8.00;99.90;;;8.79;78.00;96554.66;5212243;28;20225;-55
2022/04/08 07:35:58;;;;;;;4.80;3.30;;;7.90;99.90;;;8.76;77.21;96546.03;5205288;28;20319;-53
2022/04/08 07:38:31;;;;;;;4.77;3.23;;;8.00;99.90;;;8.78;78.12;96552.03;5203240;28;20252;-52
2022/04/08 07:41:05;;;;;;;3.47;3.13;;;7.90;99.90;;;8.74;79.41;96547.63;5199953;28;20198;-56
2022/04/08 07:43:38;;;;;;;3.17;2.73;;;7.90;99.90;;;8.72;80.38;96549.25;5201395;28;20300;-56
2022/04/08 07:46:11;;;;;;;5.33;3.50;;;7.90;99.90;;;8.57;82.50;96555.41;5209340;28;20313;-57
2022/04/08 07:48:44;;;;;;;5.10;3.20;;;7.80;99.90;;;8.62;81.91;96542.03;5212532;28;20197;-57
2022/04/08 07:51:18;;;;;;;3.73;3.00;;;7.80;99.90;;;8.77;81.59;96543.53;5210012;28;20285;-57
2022/04/08 07:53:51;;;;;;;4.60;2.90;;;7.90;99.90;;;8.56;83.46;96547.72;5202080;28;20292;-55
2022/04/08 07:56:24;;;;;;;4.30;3.03;;;7.80;99.90;;;8.61;83.81;96550.44;5202270;28;20296;-59
2022/04/08 07:58:57;;;;;;;3.30;2.67;;;7.80;99.90;;;8.55;83.48;96551.91;5202308;28;20293;-59
2022/04/08 08:01:30;;;;;;;4.00;2.80;;;7.70;99.90;;;8.51;84.14;96551.75;5203593;28;20232;-53
2022/04/08 08:04:04;;;;;;;4.57;2.90;;;7.80;99.90;;;8.50;84.34;96540.69;5204679;28;20337;-56
2022/04/08 08:06:39;;;;;;;4.13;3.00;;;7.70;99.90;;;8.50;84.38;96538.16;5199313;28;20620;-53
2022/04/08 08:09:12;;;;;;;4.57;2.67;;;7.60;99.90;;;8.51;84.95;96534.78;5199569;28;20204;-53
2022/04/08 08:11:45;;;;;;;3.53;2.77;;;7.70;99.90;;;8.59;85.33;96536.81;5207026;28;20648;-54
2022/04/08 08:14:19;;;;;;;2.70;2.50;;;7.70;99.90;;;8.68;85.46;96527.00;5205082;28;20296;-54
2022/04/08 08:16:52;;;;;;;4.10;2.43;;;7.80;99.90;;;8.68;85.05;96527.00;5208485;28;20288;-52
2022/04/08 08:19:26;;;;;;;3.87;2.50;;;7.70;99.90;;;8.77;83.90;96529.94;5205455;28;20228;-55
2022/04/08 08:22:00;;;;;;;4.30;3.10;;;7.70;99.90;;;8.64;85.29;96520.03;5204850;28;20202;-53
2022/04/08 08:24:33;;;;;;;2.97;2.33;;;7.80;99.90;;;8.78;86.28;96517.28;5198717;28;20934;-57
2022/04/08 08:27:06;;;;;;;2.93;2.50;;;7.90;99.90;;;8.94;86.74;96511.13;5201685;28;20230;-59
2022/04/08 08:29:39;;;;;;;3.00;2.80;;;8.10;99.90;;;9.15;86.23;96505.16;5199638;28;20576;-56
2022/04/08 08:32:13;;;;;;;2.90;2.70;;;8.30;99.90;;;9.31;85.80;96502.41;5203508;28;20198;-54
2022/04/08 08:34:46;;;;;;;2.47;2.20;;;8.50;99.90;;;9.37;83.29;96502.66;5203828;28;20650;-53
2022/04/08 08:37:20;;;;;;;3.07;2.77;;;8.50;99.90;;;9.32;84.19;96493.94;5202205;28;20209;-57
2022/04/08 08:39:56;;;;;;;3.20;2.30;;;8.40;99.90;;;9.42;82.56;96493.53;5200712;28;20245;-58
2022/04/08 08:42:30;;;;;;;2.50;2.30;;;8.50;99.90;;;9.47;82.60;96494.56;5203572;28;20703;-56
2022/04/08 08:45:04;;;;;;;4.10;2.90;;;8.40;99.90;;;9.33;83.57;96485.50;5203839;28;20631;-55
2022/04/08 08:47:38;;;;;;;4.50;2.50;;;8.40;99.90;;;9.19;84.21;96473.91;5203266;28;20622;-60
2022/04/08 08:50:11;;;;;;;3.37;2.67;;;8.40;99.90;;;9.17;83.97;96483.16;5203331;28;20289;-57
2022/04/08 08:52:50;;;;;;;2.80;2.43;;;8.30;99.90;;;9.16;83.58;96481.44;5200006;28;20208;-56
2022/04/08 08:55:24;;;;;;;2.83;2.60;;;8.20;99.90;;;9.11;85.20;96477.81;5203844;28;20249;-56
2022/04/08 08:57:58;;;;;;;2.87;2.57;;;8.20;99.90;;;9.07;87.31;96486.13;5202338;28;20230;-56
2022/04/08 09:00:31;;;;;;;3.13;2.70;;;8.20;99.90;;;8.97;86.69;96474.72;5211241;28;20647;-59
2022/04/08 09:03:05;;;;;;;3.00;2.80;;;8.20;99.90;;;9.07;86.34;96471.75;5202410;28;20269;-57
2022/04/08 09:05:43;;;;;;;6.37;3.00;;;8.20;99.90;;;9.01;87.25;96469.81;5201364;28;20723;-56
2022/04/08 09:08:17;;;;;;;6.33;3.57;;;8.20;99.90;;;9.10;88.31;96460.75;5203210;28;20710;-56
2022/04/08 09:10:52;;;;;;;5.90;5.30;;;8.30;99.90;;;9.07;88.56;96459.00;5205369;28;20204;-58
2022/04/08 09:13:27;;;;;;;5.23;2.83;;;8.30;99.90;;;9.17;87.29;96455.13;5204015;28;20197;-57
2022/04/08 09:16:02;;;;;;;2.70;2.50;;;8.30;99.90;;;9.04;87.47;96451.19;5206907;28;20282;-54
2022/04/08 09:18:37;;;;;;;2.60;2.40;;;8.30;99.90;;;9.01;87.85;96451.06;5212073;28;20197;-55
2022/04/08 09:21:11;;;;;;;2.23;1.97;;;8.30;99.90;;;9.11;86.92;96447.22;5208873;28;20723;-55
2022/04/08 09:23:46;;;;;;;6.00;5.60;;;8.30;99.90;;;9.13;86.85;96438.84;5207660;28;20243;-55
2022/04/08 09:26:20;;;;;;;2.77;2.57;;;8.30;99.90;;;9.16;86.73;96435.53;5201115;28;20323;-58
2022/04/08 09:28:56;;;;;;;2.50;2.30;;;8.30;99.90;;;9.20;86.83;96428.06;5202471;28;20292;-57
2022/04/08 09:31:30;;;;;;;3.57;2.30;;;8.40;99.90;;;9.21;86.55;96419.63;5206356;28;20267;-56
2022/04/08 09:34:03;;;;;;;2.23;1.90;;;8.40;99.90;;;9.23;87.46;96412.00;5199377;28;20214;-53
2022/04/08 09:36:41;;;;;;;2.40;2.13;;;8.40;99.90;;;9.24;84.99;96395.91;5205130;28;20641;-56
2022/04/08 09:39:16;;;;;;;3.37;2.00;;;8.30;99.90;;;9.17;85.55;96388.84;5205514;28;20196;-55
2022/04/08 09:41:51;;;;;;;2.03;1.93;;;8.30;99.90;;;9.06;86.04;96382.47;5202379;28;20213;-56
2022/04/08 09:44:25;;;;;;;2.90;2.30;;;8.30;99.90;;;9.05;87.12;96379.03;5205454;28;20299;-51
2022/04/08 09:46:58;;;;;;;2.40;2.20;;;8.30;99.90;;;8.96;87.85;96369.38;5208138;28;20612;-55
2022/04/08 09:49:31;;;;;;;2.60;2.40;;;8.20;99.90;;;8.98;87.63;96366.88;5203948;28;20197;-55
2022/04/08 09:52:07;;;;;;;2.33;2.23;;;8.10;99.90;;;8.92;87.92;96353.88;5201171;28;20217;-55
2022/04/08 09:54:44;;;;;;;2.70;2.50;;;8.10;99.90;;;8.92;88.40;96344.56;5207605;28;20304;-56
2022/04/08 09:57:18;;;;;;;2.90;2.17;;;8.10;99.90;;;8.89;88.59;96343.59;5208546;28;20285;-56
2022/04/08 09:59:56;;;;;;;2.53;2.33;;;8.10;99.90;;;8.80;89.84;96329.66;5204947;28;20207;-56
2022/04/08 10:02:30;;;;;;;2.37;2.20;;;8.10;99.90;;;8.78;90.03;96332.97;5200942;28;20247;-52
2022/04/08 10:05:13;;;;;;;2.40;2.27;;;8.10;99.90;;;8.77;90.25;96318.50;5212903;28;20233;-52
2022/04/08 10:07:48;;;;;;;4.10;2.27;;;7.90;99.90;;;8.72;89.85;96314.91;5201002;28;20206;-58
2022/04/08 10:10:32;;;;;;;2.50;2.30;;;7.80;99.90;;;8.62;90.60;96312.81;5207126;28;20260;-54
2022/04/08 10:13:36;;;;;;;2.50;2.40;;;7.80;99.90;;;8.62;90.91;96312.81;5201360;28;20660;-56
2022/04/08 10:16:17;;;;;;;2.30;2.10;;;7.80;99.90;;;8.62;91.36;96295.00;5210337;28;20221;-55
2022/04/08 10:18:52;;;;;;;2.47;2.27;;;7.70;99.90;;;8.64;91.63;96285.72;5210463;28;20256;-54
2022/04/08 10:21:36;;;;;;;2.63;2.43;;;7.80;99.90;;;8.61;92.21;96281.38;5208337;28;20614;-61
2022/04/08 10:24:13;;;;;;;3.03;2.83;;;7.80;99.90;;;8.64;92.59;96265.34;5202255;28;20197;-57
2022/04/08 10:27:01;;;;;;;4.30;3.67;;;7.80;99.90;;;8.53;92.70;96268.34;5202500;28;20305;-56
2022/04/08 10:29:36;;;;;;;5.83;5.03;;;7.80;99.90;;;8.51;92.25;96254.69;5206990;28;21958;-53
2022/04/08 10:32:14;;;;;;;4.87;4.47;;;7.70;99.90;;;8.45;92.72;96236.63;5202115;28;20300;-57
2022/04/08 10:34:49;;;;;;;4.20;3.80;;;7.70;99.90;;;8.30;91.33;96229.25;5210511;28;20241;-57
2022/04/08 10:37:24;;;;;;;5.37;3.83;;;7.70;99.90;;;8.21;91.75;96238.19;5213508;28;20288;-57
2022/04/08 10:39:58;;;;;;;3.37;3.10;;;7.60;99.90;;;8.23;93.46;96221.28;5215609;28;20288;-57
2022/04/08 10:42:34;;;;;;;3.57;2.57;;;7.60;99.90;;;8.14;92.89;96219.25;5208030;28;20248;-54
2022/04/08 10:45:14;;;;;;;3.70;2.87;;;7.60;99.90;;;8.14;93.56;96209.09;5208429;28;20221;-54
2022/04/08 10:47:48;;;;;;;3.47;3.23;;;7.50;99.90;;;8.16;93.33;96209.16;5217746;28;20242;-55
2022/04/08 10:50:26;;;;;;;3.50;3.20;;;7.50;99.90;;;8.09;94.13;96198.72;5211575;28;20190;-57
2022/04/08 10:53:07;;;;;;;4.47;4.17;;;7.50;99.90;;;8.05;94.00;96198.53;5211155;28;20280;-56
2022/04/08 10:55:49;;;;;;;3.60;3.40;;;7.50;99.90;;;7.92;93.73;96204.81;5202572;28;20720;-57
2022/04/08 10:58:34;;;;;;;3.20;2.90;;;7.30;99.90;;;7.87;94.53;96191.06;5212199;28;20288;-53
2022/04/08 11:01:19;;;;;;;3.00;2.80;;;7.30;99.90;;;7.90;94.86;96181.00;5207924;28;20243;-56
2022/04/08 11:03:59;;;;;;;3.70;3.40;;;7.30;99.90;;;7.81;95.06;96188.25;5207953;28;20193;-53